Time;durP1;ratioP1;P1;durP2;ratioP2;P2;SDS_P1;SDS_P2;PMS_P1;PMS_P2;Temp;Humidity;BMP_temperature;BMP_pressure;BME280_temperature;BME280_humidity;BME280_pressure;Samples;Min_cycle;Max_cycle;Signal;HPM_P1;HPM_P2
2024/04/15 00:00:07;;;;;;;19.80;3.63;;;21.20;50.50;;;;;;5335430;26;20001;-65
2024/04/15 00:02:33;;;;;;;8.90;2.92;;;21.10;50.70;;;;;;5335314;26;20000;-66
2024/04/15 00:05:02;;;;;;;20.50;2.63;;;21.10;50.40;;;;;;5333221;26;20005;-65
2024/04/15 00:07:28;;;;;;;13.55;2.72;;;21.10;50.70;;;;;;5332347;26;20223;-66
2024/04/15 00:09:53;;;;;;;13.38;2.78;;;21.10;50.70;;;;;;5335317;26;20012;-66
2024/04/15 00:12:19;;;;;;;18.17;2.73;;;21.00;51.00;;;;;;5336314;26;20001;-66
2024/04/15 00:14:45;;;;;;;11.00;2.73;;;21.00;51.50;;;;;;5332513;26;20008;-66
2024/04/15 00:17:11;;;;;;;17.70;3.38;;;20.90;51.10;;;;;;5336723;26;20476;-66
2024/04/15 00:19:38;;;;;;;16.23;3.00;;;20.90;51.40;;;;;;5364195;26;20004;-66
2024/04/15 00:22:04;;;;;;;15.93;3.33;;;20.90;51.70;;;;;;5336587;26;20012;-66
2024/04/15 00:24:30;;;;;;;20.15;3.00;;;20.90;51.40;;;;;;5338169;26;20713;-65
2024/04/15 00:26:55;;;;;;;9.60;2.23;;;20.90;51.50;;;;;;5337688;26;20009;-68
2024/04/15 00:29:23;;;;;;;8.93;2.17;;;20.80;51.60;;;;;;5337355;26;20598;-65
2024/04/15 00:31:48;;;;;;;18.90;2.28;;;20.70;52.20;;;;;;5336588;26;20351;-66
2024/04/15 00:34:14;;;;;;;10.40;2.42;;;20.70;52.10;;;;;;5337607;26;20020;-65
2024/04/15 00:36:42;;;;;;;22.60;2.53;;;20.70;51.60;;;;;;5336503;26;20007;-65
2024/04/15 00:39:09;;;;;;;10.32;2.22;;;20.70;52.30;;;;;;5335864;26;20066;-66
2024/04/15 00:41:34;;;;;;;15.77;2.35;;;20.60;52.00;;;;;;5336219;26;20023;-65
2024/04/15 00:44:00;;;;;;;17.23;3.80;;;20.60;52.00;;;;;;5336659;26;20459;-66
2024/04/15 00:46:26;;;;;;;15.43;2.53;;;20.60;52.30;;;;;;5335060;26;20001;-65
2024/04/15 00:48:53;;;;;;;11.85;2.90;;;20.50;52.50;;;;;;5335114;26;20012;-65
2024/04/15 00:51:21;;;;;;;10.13;2.30;;;20.40;53.60;;;;;;5336350;26;20450;-66
2024/04/15 00:53:49;;;;;;;12.55;2.85;;;20.40;52.40;;;;;;5362086;26;20392;-65
2024/04/15 00:56:16;;;;;;;9.77;2.50;;;20.40;52.40;;;;;;5335312;26;20013;-66
2024/04/15 00:58:42;;;;;;;13.27;2.80;;;20.50;52.60;;;;;;5325977;26;20806;-66
2024/04/15 01:01:09;;;;;;;;;;;20.50;52.80;;;;;;5337576;26;20055;-65
2024/04/15 01:03:34;;;;;;;9.27;2.63;;;20.40;52.60;;;;;;5335709;26;19933;-65
2024/04/15 01:06:01;;;;;;;15.52;3.35;;;20.40;53.00;;;;;;5335010;26;19996;-66
2024/04/15 01:08:27;;;;;;;13.70;2.92;;;20.50;52.30;;;;;;5335434;26;20015;-66
2024/04/15 01:10:53;;;;;;;7.55;2.63;;;20.40;53.00;;;;;;5333221;26;20355;-65
2024/04/15 01:13:19;;;;;;;12.40;2.63;;;20.40;52.80;;;;;;5336953;26;20020;-66
2024/04/15 01:15:45;;;;;;;7.90;2.78;;;20.40;52.40;;;;;;5335114;26;20001;-66
2024/04/15 01:18:10;;;;;;;7.73;2.20;;;20.40;51.50;;;;;;5334870;26;20008;-65
2024/04/15 01:20:36;;;;;;;5.50;1.93;;;20.40;51.60;;;;;;5334812;26;20001;-66
2024/04/15 01:23:08;;;;;;;16.52;2.25;;;20.40;51.40;;;;;;5335005;26;19997;-66
2024/04/15 01:25:34;;;;;;;6.45;2.80;;;20.30;52.00;;;;;;5336280;26;20011;-66
2024/04/15 01:28:01;;;;;;;8.25;2.78;;;20.40;52.30;;;;;;5336273;26;20005;-66
2024/04/15 01:30:26;;;;;;;;;;;20.20;52.90;;;;;;5336842;26;20005;-66
2024/04/15 01:32:52;;;;;;;12.13;2.42;;;20.30;52.10;;;;;;5335930;26;19995;-66
2024/04/15 01:35:19;;;;;;;7.83;2.43;;;20.30;51.70;;;;;;5337148;26;20036;-65
2024/04/15 01:37:45;;;;;;;6.03;2.58;;;20.40;51.60;;;;;;5332647;26;20008;-66
2024/04/15 01:40:11;;;;;;;5.50;2.03;;;20.30;51.50;;;;;;5336444;26;20008;-67
2024/04/15 01:42:37;;;;;;;10.40;2.53;;;20.30;51.50;;;;;;5336017;26;20005;-66
2024/04/15 01:45:02;;;;;;;12.73;3.30;;;20.30;52.60;;;;;;5338829;26;20406;-66
2024/04/15 01:47:28;;;;;;;10.70;2.80;;;20.30;51.40;;;;;;5340772;26;20227;-65
2024/04/15 01:49:54;;;;;;;5.65;2.28;;;20.20;51.70;;;;;;5339391;26;20745;-66
2024/04/15 01:52:20;;;;;;;10.93;3.30;;;20.20;52.10;;;;;;5339470;26;20784;-66
2024/04/15 01:54:45;;;;;;;16.47;2.70;;;20.20;51.40;;;;;;5339197;26;20036;-66
2024/04/15 01:57:11;;;;;;;10.40;2.33;;;20.20;52.50;;;;;;5339683;26;20030;-66
2024/04/15 01:59:37;;;;;;;8.77;2.57;;;20.10;51.80;;;;;;5339452;26;19997;-66
2024/04/15 02:02:02;;;;;;;11.33;2.20;;;20.10;51.50;;;;;;5339865;26;20001;-66
2024/04/15 02:04:28;;;;;;;6.73;2.73;;;20.00;52.30;;;;;;5365062;26;20012;-65
2024/04/15 02:06:53;;;;;;;5.37;2.20;;;20.10;51.70;;;;;;5339118;26;20005;-66
2024/04/15 02:09:19;;;;;;;10.20;2.70;;;20.10;51.60;;;;;;5338797;26;20049;-66
2024/04/15 02:11:45;;;;;;;10.23;2.50;;;20.20;51.10;;;;;;5338379;26;20001;-65
2024/04/15 02:14:11;;;;;;;5.20;2.67;;;20.20;52.70;;;;;;5338720;26;20070;-65
2024/04/15 02:16:36;;;;;;;8.35;2.45;;;20.30;50.90;;;;;;5337942;26;20004;-67
2024/04/15 02:19:02;;;;;;;7.83;2.67;;;20.30;50.50;;;;;;5337526;26;20451;-66
2024/04/15 02:21:28;;;;;;;4.90;2.20;;;20.20;51.60;;;;;;5338144;26;20029;-65
2024/04/15 02:23:53;;;;;;;15.47;2.73;;;20.10;51.90;;;;;;5366199;26;20012;-65
2024/04/15 02:26:19;;;;;;;9.27;2.23;;;20.20;50.90;;;;;;5335803;26;20842;-66
2024/04/15 02:28:45;;;;;;;6.43;2.50;;;20.20;51.20;;;;;;5336753;26;20176;-66
2024/04/15 02:31:11;;;;;;;7.88;2.72;;;20.30;50.90;;;;;;5336482;26;20017;-66
2024/04/15 02:33:37;;;;;;;10.40;2.65;;;20.30;51.30;;;;;;5337180;26;20465;-66
2024/04/15 02:36:03;;;;;;;6.63;2.33;;;20.20;51.50;;;;;;5337673;26;20009;-66
2024/04/15 02:38:28;;;;;;;16.13;3.00;;;20.20;51.30;;;;;;5365681;26;20004;-66
2024/04/15 02:40:54;;;;;;;10.17;3.57;;;20.20;52.20;;;;;;5337271;26;20347;-66
2024/04/15 02:43:20;;;;;;;8.80;2.70;;;20.20;51.90;;;;;;5335790;26;19993;-67
2024/04/15 02:45:47;;;;;;;6.68;2.30;;;20.10;51.70;;;;;;5336032;26;20012;-65
2024/04/15 02:48:15;;;;;;;9.07;3.17;;;20.10;51.60;;;;;;5336970;26;20008;-66
2024/04/15 02:50:41;;;;;;;12.40;3.10;;;20.10;52.00;;;;;;5336893;26;20015;-66
2024/04/15 02:53:07;;;;;;;17.73;2.50;;;20.10;51.60;;;;;;5336585;26;20866;-67
2024/04/15 02:55:33;;;;;;;19.70;2.83;;;20.00;52.30;;;;;;5336015;26;20016;-67
2024/04/15 02:57:59;;;;;;;7.65;2.50;;;20.00;52.60;;;;;;5335701;26;20015;-67
2024/04/15 03:00:25;;;;;;;9.77;2.80;;;20.00;52.30;;;;;;5336907;26;20001;-66
2024/04/15 03:02:51;;;;;;;16.17;2.70;;;20.10;51.30;;;;;;5335705;26;20001;-67
2024/04/15 03:05:17;;;;;;;7.75;2.30;;;20.10;51.70;;;;;;5334517;26;20048;-66
2024/04/15 03:07:46;;;;;;;7.80;2.30;;;20.00;52.30;;;;;;5334491;26;20004;-66
2024/04/15 03:10:12;;;;;;;16.13;2.45;;;20.00;52.30;;;;;;5335359;26;20914;-66
2024/04/15 03:12:37;;;;;;;14.37;3.17;;;20.00;53.70;;;;;;5336873;26;20005;-67
2024/04/15 03:15:03;;;;;;;9.23;2.53;;;19.90;52.60;;;;;;5337073;26;20000;-66
2024/04/15 03:17:29;;;;;;;12.88;2.88;;;19.80;54.20;;;;;;5335496;26;20041;-66
2024/04/15 03:19:55;;;;;;;10.32;2.53;;;19.80;54.40;;;;;;5334146;26;20887;-66
2024/04/15 03:22:21;;;;;;;13.57;2.80;;;19.70;56.20;;;;;;5334637;26;20786;-67
2024/04/15 03:24:48;;;;;;;9.32;2.38;;;19.60;55.30;;;;;;5334299;26;20655;-66
2024/04/15 03:27:13;;;;;;;6.63;2.55;;;19.50;56.50;;;;;;5334954;26;20074;-66
2024/04/15 03:29:39;;;;;;;12.53;2.47;;;19.50;55.90;;;;;;5335472;26;19997;-66
2024/04/15 03:32:05;;;;;;;13.63;2.60;;;19.40;58.30;;;;;;5335366;26;20224;-66
2024/04/15 03:34:31;;;;;;;8.55;2.67;;;19.30;57.10;;;;;;5336395;26;20011;-66
2024/04/15 03:36:57;;;;;;;8.97;2.73;;;19.10;59.00;;;;;;5336338;26;20001;-66
2024/04/15 03:39:22;;;;;;;9.83;3.70;;;19.10;57.20;;;;;;5336126;26;20439;-66
2024/04/15 03:41:48;;;;;;;9.90;3.00;;;19.00;60.30;;;;;;5335331;26;20001;-65
2024/04/15 03:44:13;;;;;;;7.60;2.20;;;19.00;58.60;;;;;;5337813;26;20017;-66
2024/04/15 03:46:39;;;;;;;10.17;2.70;;;19.10;57.40;;;;;;5334653;26;20004;-66
2024/04/15 03:49:05;;;;;;;6.17;2.27;;;19.00;58.70;;;;;;5335691;26;20260;-66
2024/04/15 03:51:30;;;;;;;5.43;2.50;;;18.90;56.40;;;;;;5326459;26;20012;-66
2024/04/15 03:53:56;;;;;;;9.67;2.33;;;19.00;55.20;;;;;;5335585;26;20021;-67
2024/04/15 03:56:22;;;;;;;8.47;3.10;;;19.00;55.30;;;;;;5338095;26;20024;-66
2024/04/15 03:58:47;;;;;;;6.17;2.20;;;19.00;56.00;;;;;;5312325;26;20873;-66
2024/04/15 04:01:13;;;;;;;9.53;2.70;;;19.00;56.20;;;;;;5336788;26;20005;-67
2024/04/15 04:03:40;;;;;;;9.13;2.60;;;19.00;66.10;;;;;;5336348;26;20048;-66
2024/04/15 04:06:06;;;;;;;8.50;2.25;;;19.00;67.50;;;;;;5327366;26;20004;-67
2024/04/15 04:08:32;;;;;;;7.95;2.60;;;19.20;71.10;;;;;;5328445;26;20033;-66
2024/04/15 04:11:05;;;;;;;8.17;2.27;;;19.00;66.80;;;;;;5323988;26;20017;-66
2024/04/15 04:13:33;;;;;;;8.63;2.60;;;19.00;64.10;;;;;;5336475;26;20048;-66
2024/04/15 04:15:58;;;;;;;5.63;2.45;;;19.10;67.50;;;;;;5336208;26;20446;-66
2024/04/15 04:18:24;;;;;;;9.73;2.43;;;18.90;67.40;;;;;;5324204;26;20005;-66
2024/04/15 04:20:50;;;;;;;19.97;2.90;;;18.90;65.80;;;;;;5327842;26;20012;-66
2024/04/15 04:23:15;;;;;;;6.67;2.60;;;18.90;67.80;;;;;;5333798;26;20015;-66
2024/04/15 04:25:41;;;;;;;11.30;3.27;;;19.00;68.30;;;;;;5329048;26;20008;-66
2024/04/15 04:28:06;;;;;;;13.23;2.77;;;18.80;67.00;;;;;;5328882;26;20016;-65
2024/04/15 04:30:35;;;;;;;7.17;2.70;;;18.80;68.20;;;;;;5335233;26;20008;-66
2024/04/15 04:33:03;;;;;;;12.80;2.60;;;18.70;66.10;;;;;;5335882;26;20013;-67
2024/04/15 04:35:38;;;;;;;8.73;2.40;;;18.70;67.10;;;;;;5333820;26;20025;-67
2024/04/15 04:38:03;;;;;;;8.77;2.30;;;18.80;66.30;;;;;;5335308;26;20697;-66
2024/04/15 04:40:29;;;;;;;9.63;2.47;;;18.70;69.80;;;;;;5333076;26;20037;-66
2024/04/15 04:42:54;;;;;;;8.80;2.67;;;18.60;67.60;;;;;;5335746;26;20001;-66
2024/04/15 04:45:20;;;;;;;13.40;4.90;;;18.60;67.30;;;;;;5330667;26;20020;-66
2024/04/15 04:47:46;;;;;;;6.00;2.60;;;18.50;68.20;;;;;;5326397;26;19997;-67
2024/04/15 04:50:11;;;;;;;16.10;2.57;;;18.40;67.00;;;;;;5360185;26;19997;-66
2024/04/15 04:52:37;;;;;;;5.90;2.40;;;18.30;67.80;;;;;;5360418;26;20867;-67
2024/04/15 04:55:03;;;;;;;8.07;2.97;;;18.20;68.20;;;;;;5331117;26;20681;-66
2024/04/15 04:57:28;;;;;;;8.82;2.22;;;18.10;66.80;;;;;;5330429;26;20075;-67
2024/04/15 04:59:54;;;;;;;10.10;3.33;;;18.20;66.10;;;;;;5332162;26;20371;-66
2024/04/15 05:02:21;;;;;;;7.37;2.87;;;18.30;66.50;;;;;;5333459;26;20008;-66
2024/04/15 05:04:47;;;;;;;12.65;2.83;;;18.20;66.70;;;;;;5330652;26;20438;-66
2024/04/15 05:07:12;;;;;;;12.40;2.90;;;18.20;67.00;;;;;;5324457;26;20007;-66
2024/04/15 05:09:39;;;;;;;7.50;2.90;;;18.30;66.40;;;;;;5329901;26;20086;-66
2024/04/15 05:12:05;;;;;;;13.45;2.72;;;18.40;64.80;;;;;;5331748;26;20478;-67
2024/04/15 05:14:31;;;;;;;16.17;2.58;;;18.20;66.90;;;;;;5332574;26;20017;-66
2024/04/15 05:16:57;;;;;;;9.50;2.50;;;18.20;70.60;;;;;;5320913;26;20471;-66
2024/04/15 05:19:23;;;;;;;;;;;18.20;67.10;;;;;;5335434;26;20061;-66
2024/04/15 05:21:49;;;;;;;8.52;2.38;;;18.40;68.20;;;;;;5336253;26;20390;-65
2024/04/15 05:24:15;;;;;;;8.80;3.00;;;18.30;68.00;;;;;;5337395;26;20001;-66
2024/04/15 05:26:40;;;;;;;8.53;2.60;;;18.20;68.40;;;;;;5337286;26;20005;-65
2024/04/15 05:29:06;;;;;;;10.40;2.70;;;18.40;69.60;;;;;;5365252;26;20711;-65
2024/04/15 05:31:31;;;;;;;12.63;2.60;;;18.20;68.60;;;;;;5337996;26;20005;-65
2024/04/15 05:33:58;;;;;;;7.70;2.77;;;18.20;70.70;;;;;;5337719;26;19997;-66
2024/04/15 05:36:23;;;;;;;11.20;2.53;;;18.20;66.20;;;;;;5337345;26;20032;-65
2024/04/15 05:38:49;;;;;;;16.03;3.13;;;18.30;69.40;;;;;;5337766;26;20838;-67
2024/04/15 05:41:14;;;;;;;11.70;2.80;;;18.30;70.70;;;;;;5335598;26;20037;-67
2024/04/15 05:43:40;;;;;;;15.57;2.53;;;18.40;72.40;;;;;;5337830;26;20001;-66
2024/04/15 05:46:06;;;;;;;9.90;2.43;;;18.20;72.20;;;;;;5338808;26;20012;-66
2024/04/15 05:48:32;;;;;;;13.10;3.43;;;18.20;67.50;;;;;;5338321;26;20534;-68
2024/04/15 05:50:57;;;;;;;9.52;2.70;;;18.20;72.70;;;;;;5337728;26;20402;-68
2024/04/15 05:53:23;;;;;;;6.83;2.50;;;18.10;71.40;;;;;;5337807;26;20054;-69
2024/04/15 05:55:49;;;;;;;9.00;2.60;;;18.20;72.90;;;;;;5338494;26;19997;-68
2024/04/15 05:58:14;;;;;;;11.67;3.20;;;18.30;68.90;;;;;;5337786;26;20017;-68
2024/04/15 06:00:40;;;;;;;8.50;2.87;;;18.30;71.00;;;;;;5337109;26;20008;-68
2024/04/15 06:03:05;;;;;;;20.63;4.27;;;18.30;67.80;;;;;;5338209;26;20005;-67
2024/04/15 06:05:32;;;;;;;10.77;3.23;;;18.40;68.30;;;;;;5337017;26;20356;-68
2024/04/15 06:07:58;;;;;;;7.63;2.53;;;18.20;69.60;;;;;;5337290;26;20032;-68
2024/04/15 06:10:24;;;;;;;7.10;2.63;;;18.30;69.50;;;;;;5338780;26;20442;-68
2024/04/15 06:12:51;;;;;;;11.68;3.20;;;18.50;71.60;;;;;;5336360;26;20016;-68
2024/04/15 06:15:16;;;;;;;;;;;18.60;64.90;;;;;;5335754;26;20367;-68
2024/04/15 06:17:42;;;;;;;14.65;3.17;;;18.60;69.10;;;;;;5337156;26;19934;-69
2024/04/15 06:20:08;;;;;;;9.93;2.63;;;18.70;69.50;;;;;;5336878;26;20001;-68
2024/04/15 06:22:33;;;;;;;11.45;3.13;;;18.60;69.80;;;;;;5335855;26;20017;-65
2024/04/15 06:24:59;;;;;;;10.27;2.67;;;18.80;69.60;;;;;;5336376;26;19992;-66
2024/04/15 06:27:24;;;;;;;17.20;4.13;;;18.60;70.00;;;;;;5336068;26;19993;-67
2024/04/15 06:29:50;;;;;;;12.13;3.17;;;19.30;73.00;;;;;;5336250;26;20004;-67
2024/04/15 06:32:16;;;;;;;13.07;2.97;;;19.50;69.30;;;;;;5334847;26;20264;-67
2024/04/15 06:34:42;;;;;;;10.87;2.27;;;20.10;69.10;;;;;;5333219;26;19997;-67
2024/04/15 06:37:07;;;;;;;7.07;3.10;;;20.20;66.60;;;;;;5334582;26;20019;-67
2024/04/15 06:39:36;;;;;;;6.23;2.90;;;20.30;71.50;;;;;;5337532;26;20029;-67
2024/04/15 06:42:01;;;;;;;10.38;2.67;;;19.90;67.40;;;;;;5335411;26;20588;-67
2024/04/15 06:44:27;;;;;;;7.57;2.58;;;20.10;68.40;;;;;;5337156;26;20001;-67
2024/04/15 06:46:54;;;;;;;10.93;3.00;;;20.60;61.80;;;;;;5337339;26;20338;-67
2024/04/15 06:49:19;;;;;;;;;;;20.80;61.20;;;;;;5335781;26;19996;-67
2024/04/15 06:51:45;;;;;;;6.80;2.40;;;20.90;64.30;;;;;;5333780;26;19934;-66
2024/04/15 06:54:10;;;;;;;7.70;3.20;;;21.00;63.40;;;;;;5335577;26;20001;-68
2024/04/15 06:56:36;;;;;;;12.80;4.30;;;20.90;66.60;;;;;;5335199;26;20381;-68
2024/04/15 06:59:02;;;;;;;7.20;2.60;;;20.70;65.10;;;;;;5332426;26;20064;-68
2024/04/15 07:01:27;;;;;;;12.63;2.70;;;20.50;59.50;;;;;;5334045;26;20255;-68
2024/04/15 07:03:56;;;;;;;7.60;2.70;;;20.60;61.10;;;;;;5333555;26;20015;-68
2024/04/15 07:06:24;;;;;;;9.27;2.70;;;20.80;59.60;;;;;;5335059;26;20334;-68
2024/04/15 07:08:50;;;;;;;11.73;2.75;;;21.00;62.60;;;;;;5336461;26;20461;-69
2024/04/15 07:11:16;;;;;;;8.00;2.75;;;21.20;62.30;;;;;;5337654;26;20044;-68
2024/04/15 07:13:42;;;;;;;10.13;2.78;;;21.50;60.30;;;;;;5338439;26;20001;-68
2024/04/15 07:16:09;;;;;;;12.27;3.13;;;21.40;60.70;;;;;;5337877;26;20051;-68
2024/04/15 07:18:35;;;;;;;11.15;2.40;;;21.40;59.30;;;;;;5338554;26;20008;-67
2024/04/15 07:21:01;;;;;;;8.02;2.22;;;21.30;59.70;;;;;;5338788;26;20352;-67
2024/04/15 07:23:26;;;;;;;14.00;2.88;;;21.30;59.20;;;;;;5336766;26;20008;-67
2024/04/15 07:25:59;;;;;;;15.93;2.80;;;21.40;60.40;;;;;;5338072;26;20000;-67
2024/04/15 07:28:25;;;;;;;10.68;2.88;;;21.60;60.20;;;;;;5338601;26;19997;-67
2024/04/15 07:31:01;;;;;;;11.98;3.35;;;21.50;61.90;;;;;;5337711;26;20015;-69
2024/04/15 07:33:27;;;;;;;9.77;2.67;;;21.80;60.90;;;;;;5337534;26;20509;-68
2024/04/15 07:35:57;;;;;;;16.45;2.92;;;22.10;62.00;;;;;;5322279;26;20005;-68
2024/04/15 07:38:22;;;;;;;10.02;2.65;;;22.30;61.00;;;;;;5337865;26;19997;-67
2024/04/15 07:40:48;;;;;;;8.55;2.50;;;22.30;59.40;;;;;;5336622;26;20055;-68
2024/04/15 07:43:14;;;;;;;13.15;3.10;;;22.40;62.00;;;;;;5335247;26;20009;-67
2024/04/15 07:45:39;;;;;;;10.70;2.90;;;22.60;62.30;;;;;;5337552;26;20084;-67
2024/04/15 07:48:05;;;;;;;8.13;2.93;;;22.60;61.00;;;;;;5337169;26;20009;-67
2024/04/15 07:50:31;;;;;;;3.83;2.47;;;22.60;61.50;;;;;;5337597;26;20012;-67
2024/04/15 07:52:57;;;;;;;8.07;2.53;;;22.70;61.70;;;;;;5337010;26;20001;-67
2024/04/15 07:55:22;;;;;;;10.23;2.77;;;22.70;61.00;;;;;;5336400;26;19996;-66
2024/04/15 07:57:48;;;;;;;11.45;2.92;;;22.70;61.70;;;;;;5335792;26;20023;-68
2024/04/15 08:00:14;;;;;;;5.07;2.75;;;22.70;60.90;;;;;;5336713;26;20004;-67
2024/04/15 08:02:40;;;;;;;13.10;2.83;;;22.60;60.80;;;;;;5338187;26;20004;-66
2024/04/15 08:05:05;;;;;;;9.80;2.90;;;22.80;60.70;;;;;;5340338;26;19996;-66
2024/04/15 08:07:31;;;;;;;6.88;2.30;;;23.10;59.10;;;;;;5341217;26;20013;-66
2024/04/15 08:09:58;;;;;;;10.10;2.83;;;23.20;60.00;;;;;;5336201;26;20009;-66
2024/04/15 08:12:24;;;;;;;18.80;2.75;;;23.40;59.60;;;;;;5336578;26;20001;-66
2024/04/15 08:14:49;;;;;;;;;;;22.80;59.70;;;;;;5338348;26;20075;-66
2024/04/15 08:17:15;;;;;;;8.52;2.38;;;22.60;60.80;;;;;;5335906;26;19938;-66
2024/04/15 08:19:41;;;;;;;7.07;3.03;;;22.30;61.70;;;;;;5335644;26;20382;-66
2024/04/15 08:22:06;;;;;;;8.47;2.20;;;22.30;62.40;;;;;;5336321;26;20212;-65
2024/04/15 08:24:32;;;;;;;20.20;3.13;;;22.30;62.70;;;;;;5335579;26;19997;-66
2024/04/15 08:26:58;;;;;;;12.13;2.80;;;22.40;62.80;;;;;;5337305;26;20008;-66
2024/04/15 08:29:23;;;;;;;11.03;2.67;;;22.30;64.20;;;;;;5336506;26;20005;-66
2024/04/15 08:31:49;;;;;;;13.90;3.77;;;22.10;64.20;;;;;;5336542;26;20021;-66
2024/04/15 08:34:14;;;;;;;10.83;3.17;;;22.30;63.70;;;;;;5336355;26;20012;-66
2024/04/15 08:36:40;;;;;;;6.80;2.57;;;22.30;63.50;;;;;;5335749;26;20024;-66
2024/04/15 08:39:06;;;;;;;10.10;2.73;;;22.10;63.90;;;;;;5335853;26;20008;-66
2024/04/15 08:41:43;;;;;;;10.20;2.60;;;22.40;64.20;;;;;;5335013;26;20464;-66
2024/04/15 08:44:13;;;;;;;8.15;2.65;;;22.40;64.80;;;;;;5335437;26;20001;-65
2024/04/15 08:46:44;;;;;;;11.30;3.10;;;22.50;65.20;;;;;;5334640;26;20774;-66
2024/04/15 08:49:10;;;;;;;7.93;2.60;;;22.70;63.10;;;;;;5335043;26;20075;-66
2024/04/15 08:51:35;;;;;;;7.32;2.63;;;23.00;62.80;;;;;;5337391;26;20021;-65
2024/04/15 08:54:01;;;;;;;9.38;2.92;;;22.80;63.10;;;;;;5333757;26;20008;-67
2024/04/15 08:56:28;;;;;;;11.65;3.38;;;22.70;62.90;;;;;;5332965;26;20001;-66
2024/04/15 08:58:58;;;;;;;9.48;2.90;;;22.50;64.00;;;;;;5335726;26;20001;-66
2024/04/15 09:01:24;;;;;;;16.63;3.10;;;22.50;65.30;;;;;;5333422;26;20442;-65
2024/04/15 09:03:49;;;;;;;18.60;3.88;;;22.40;65.10;;;;;;5336367;26;20037;-65
2024/04/15 09:06:16;;;;;;;16.70;3.58;;;22.30;66.80;;;;;;5335264;26;20020;-66
2024/04/15 09:08:45;;;;;;;13.85;2.72;;;22.30;67.00;;;;;;5333928;26;20001;-66
2024/04/15 09:11:13;;;;;;;5.50;2.55;;;22.10;67.20;;;;;;5334808;26;20037;-66
2024/04/15 09:13:39;;;;;;;10.45;2.95;;;22.40;67.70;;;;;;5334654;26;20001;-67
2024/04/15 09:16:05;;;;;;;15.83;2.73;;;22.40;68.90;;;;;;5334641;26;20039;-66
2024/04/15 09:18:31;;;;;;;13.20;4.18;;;22.20;68.80;;;;;;5335373;26;20276;-66
2024/04/15 09:20:57;;;;;;;6.63;2.28;;;22.30;69.10;;;;;;5335391;26;20001;-65
2024/04/15 09:23:23;;;;;;;8.70;3.60;;;22.30;69.40;;;;;;5335282;26;20007;-66
2024/04/15 09:25:49;;;;;;;6.68;2.78;;;22.30;70.70;;;;;;5335854;26;20087;-67
2024/04/15 09:28:15;;;;;;;11.67;3.43;;;22.30;70.40;;;;;;5334228;26;20037;-66
2024/04/15 09:30:41;;;;;;;7.82;2.95;;;22.50;69.20;;;;;;5333777;26;20008;-65
2024/04/15 09:33:11;;;;;;;6.93;2.30;;;22.60;69.60;;;;;;5332472;26;20033;-66
2024/04/15 09:35:38;;;;;;;12.70;2.80;;;22.60;70.30;;;;;;5334153;26;19993;-66
2024/04/15 09:38:05;;;;;;;13.32;2.63;;;22.40;69.90;;;;;;5334906;26;20953;-65
2024/04/15 09:40:32;;;;;;;9.07;2.80;;;22.90;69.90;;;;;;5333459;26;20349;-66
2024/04/15 09:42:58;;;;;;;7.32;2.95;;;23.20;68.90;;;;;;5334915;26;20005;-66
2024/04/15 09:45:24;;;;;;;;;;;25.10;66.30;;;;;;5335997;26;20048;-65
2024/04/15 09:47:52;;;;;;;8.65;2.70;;;26.20;67.20;;;;;;5334613;26;19926;-66
2024/04/15 09:50:20;;;;;;;7.38;2.55;;;27.10;62.50;;;;;;5334685;26;19997;-66
2024/04/15 09:52:56;;;;;;;5.45;2.17;;;27.00;63.00;;;;;;5334042;26;20528;-65
2024/04/15 09:55:35;;;;;;;5.75;2.50;;;26.50;61.60;;;;;;5333157;26;19993;-65
2024/04/15 09:58:04;;;;;;;7.50;2.55;;;27.30;62.30;;;;;;5332362;26;20001;-66
2024/04/15 10:00:30;;;;;;;8.93;2.80;;;27.90;62.10;;;;;;5332406;26;20005;-67
2024/04/15 10:03:13;;;;;;;9.77;3.00;;;28.70;60.60;;;;;;5333540;26;20594;-66
2024/04/15 10:05:40;;;;;;;11.85;2.83;;;29.80;62.20;;;;;;5334674;26;20005;-65
2024/04/15 10:08:07;;;;;;;13.35;3.13;;;29.70;58.80;;;;;;5335412;26;20124;-66
2024/04/15 10:10:34;;;;;;;9.68;2.75;;;30.10;57.60;;;;;;5335753;26;20058;-65
2024/04/15 10:13:05;;;;;;;12.80;2.63;;;30.20;57.50;;;;;;5336137;26;20075;-66
2024/04/15 10:15:31;;;;;;;12.30;3.00;;;30.40;57.20;;;;;;5338443;26;20001;-66
2024/04/15 10:17:56;;;;;;;;;;;30.30;60.60;;;;;;5339729;26;20517;-66
2024/04/15 10:20:28;;;;;;;9.25;2.63;;;30.40;59.20;;;;;;5336473;26;19926;-66
2024/04/15 10:23:03;;;;;;;8.10;2.83;;;30.00;59.70;;;;;;5337627;26;20004;-66
2024/04/15 10:25:34;;;;;;;4.68;2.70;;;30.00;60.20;;;;;;5336933;26;20012;-66
2024/04/15 10:28:00;;;;;;;8.77;2.83;;;29.90;62.60;;;;;;5336055;26;20005;-66
2024/04/15 10:30:27;;;;;;;7.88;3.22;;;29.80;66.70;;;;;;5336398;26;20054;-66
2024/04/15 10:33:02;;;;;;;8.55;2.70;;;29.90;64.70;;;;;;5337527;26;20071;-66
2024/04/15 10:35:28;;;;;;;12.10;3.20;;;29.60;65.20;;;;;;5331800;26;20000;-66
2024/04/15 10:38:02;;;;;;;7.55;2.47;;;29.70;68.00;;;;;;5336723;26;20004;-66
2024/04/15 10:40:32;;;;;;;10.27;3.00;;;29.10;68.20;;;;;;5335050;26;20004;-66
2024/04/15 10:42:58;;;;;;;5.95;2.50;;;28.60;69.90;;;;;;5336785;26;20090;-67
2024/04/15 10:45:26;;;;;;;10.05;2.90;;;28.70;60.00;;;;;;5337201;26;19996;-66
2024/04/15 10:47:52;;;;;;;6.32;3.10;;;27.60;59.70;;;;;;5339255;26;20013;-66
2024/04/15 10:50:18;;;;;;;13.07;2.63;;;26.90;60.20;;;;;;5339370;26;19997;-66
2024/04/15 10:52:44;;;;;;;8.65;2.60;;;26.90;61.50;;;;;;5336995;26;20000;-66
2024/04/15 10:55:10;;;;;;;9.80;2.60;;;26.30;62.80;;;;;;5336526;26;20037;-65
2024/04/15 10:57:39;;;;;;;5.65;2.67;;;26.20;62.20;;;;;;5336106;26;20001;-66
2024/04/15 11:00:10;;;;;;;9.82;3.35;;;26.10;63.40;;;;;;5336655;26;20092;-65
2024/04/15 11:02:40;;;;;;;7.85;2.75;;;26.00;65.30;;;;;;5335777;26;20475;-66
2024/04/15 11:05:07;;;;;;;12.02;3.05;;;25.90;64.70;;;;;;5335573;26;20447;-66
2024/04/15 11:07:33;;;;;;;6.22;2.38;;;26.00;63.40;;;;;;5335113;26;20454;-66
2024/04/15 11:09:59;;;;;;;4.53;2.53;;;26.00;64.90;;;;;;5337515;26;20001;-65
2024/04/15 11:12:25;;;;;;;14.52;4.85;;;26.00;64.70;;;;;;5335055;26;20001;-65
2024/04/15 11:14:55;;;;;;;;;;;25.80;66.30;;;;;;5337572;26;20001;-65
2024/04/15 11:17:22;;;;;;;7.90;2.95;;;25.80;66.00;;;;;;5337152;26;19925;-65
2024/04/15 11:19:59;;;;;;;4.80;2.40;;;25.80;65.80;;;;;;5336758;26;20020;-65
2024/04/15 11:22:24;;;;;;;7.57;2.53;;;25.80;64.80;;;;;;5337356;26;20078;-65
2024/04/15 11:24:51;;;;;;;4.03;2.33;;;25.70;66.90;;;;;;5334018;26;20463;-65
2024/04/15 11:27:17;;;;;;;7.13;2.58;;;25.60;66.50;;;;;;5336329;26;20374;-67
2024/04/15 11:29:43;;;;;;;;;;;25.70;66.60;;;;;;5338339;26;21084;-64
2024/04/15 11:32:09;;;;;;;58.63;12.10;;;25.60;65.10;;;;;;5336593;26;19933;-65
2024/04/15 11:34:36;;;;;;;5.68;2.80;;;25.70;65.50;;;;;;5335502;26;20009;-65
2024/04/15 11:37:02;;;;;;;11.30;3.67;;;25.80;64.40;;;;;;5336628;26;20091;-65
2024/04/15 11:39:28;;;;;;;22.85;6.35;;;25.80;66.20;;;;;;5335855;26;19996;-65
2024/04/15 11:41:54;;;;;;;22.27;7.50;;;26.00;66.70;;;;;;5335940;26;20001;-65
2024/04/15 11:44:19;;;;;;;3.83;2.70;;;26.00;66.60;;;;;;5336757;26;20320;-65
2024/04/15 11:46:47;;;;;;;21.52;4.70;;;25.80;66.60;;;;;;5335480;26;20082;-65
2024/04/15 11:49:12;;;;;;;27.67;6.18;;;25.50;67.10;;;;;;5332538;26;20043;-64
2024/04/15 11:51:41;;;;;;;7.13;3.00;;;25.40;68.50;;;;;;5335431;26;19996;-65
2024/04/15 11:54:07;;;;;;;9.32;2.60;;;25.50;67.40;;;;;;5334006;26;20727;-65
2024/04/15 11:56:32;;;;;;;12.43;3.40;;;25.70;66.00;;;;;;5329626;26;20078;-65
2024/04/15 11:58:58;;;;;;;12.82;3.05;;;25.40;66.00;;;;;;5337036;26;20012;-66
2024/04/15 12:01:24;;;;;;;7.03;2.60;;;25.50;65.90;;;;;;5337372;26;19997;-66
2024/04/15 12:03:50;;;;;;;8.35;2.38;;;25.50;66.30;;;;;;5336344;26;20008;-66
2024/04/15 12:06:17;;;;;;;8.15;3.42;;;25.50;66.90;;;;;;5335918;26;19996;-64
2024/04/15 12:08:44;;;;;;;5.22;2.50;;;25.70;66.40;;;;;;5335343;26;20017;-64
2024/04/15 12:11:13;;;;;;;9.82;3.30;;;25.80;67.50;;;;;;5337303;26;19996;-65
2024/04/15 12:13:40;;;;;;;10.70;3.10;;;25.80;66.10;;;;;;5336198;26;19997;-66
2024/04/15 12:16:05;;;;;;;;;;;25.90;66.20;;;;;;5335687;26;20008;-65
2024/04/15 12:18:31;;;;;;;6.03;2.25;;;26.00;65.70;;;;;;5335128;26;19926;-65
2024/04/15 12:20:57;;;;;;;4.30;2.25;;;25.90;66.40;;;;;;5335862;26;20004;-65
2024/04/15 12:23:23;;;;;;;5.45;2.42;;;25.70;64.80;;;;;;5335261;26;20346;-65
2024/04/15 12:25:48;;;;;;;4.38;2.55;;;25.70;65.20;;;;;;5335851;26;20885;-65
2024/04/15 12:28:14;;;;;;;3.33;2.10;;;25.80;65.30;;;;;;5333964;26;20008;-66
2024/04/15 12:30:40;;;;;;;8.80;2.00;;;25.80;64.30;;;;;;5335500;26;20336;-66
2024/04/15 12:33:05;;;;;;;2.97;2.13;;;25.70;64.60;;;;;;5335940;26;20013;-65
2024/04/15 12:35:31;;;;;;;3.88;2.10;;;25.70;65.10;;;;;;5337012;26;20223;-66
2024/04/15 12:37:56;;;;;;;5.85;1.88;;;25.30;66.00;;;;;;5334654;26;20074;-67
2024/04/15 12:40:23;;;;;;;3.60;2.10;;;24.90;67.00;;;;;;5335906;26;20056;-65